sensor_id;sensor_type;location;lat;lon;timestamp;temperature;humidity
21592;DHT22;10958;50.892;3.992;2022-12-24T00:01:37;11.00;99.90
21592;DHT22;10958;50.892;3.992;2022-12-24T00:04:03;11.10;99.90
21592;DHT22;10958;50.892;3.992;2022-12-24T00:06:29;11.10;99.90
21592;DHT22;10958;50.892;3.992;2022-12-24T00:08:58;11.10;99.90
21592;DHT22;10958;50.892;3.992;2022-12-24T00:11:24;11.20;99.90
21592;DHT22;10958;50.892;3.992;2022-12-24T00:13:50;11.20;99.90
21592;DHT22;10958;50.892;3.992;2022-12-24T00:16:16;11.20;99.90
21592;DHT22;10958;50.892;3.992;2022-12-24T00:18:42;11.30;99.90
21592;DHT22;10958;50.892;3.992;2022-12-24T00:21:09;11.30;99.90
21592;DHT22;10958;50.892;3.992;2022-12-24T00:23:35;11.30;99.90
21592;DHT22;10958;50.892;3.992;2022-12-24T00:26:01;11.20;99.90
21592;DHT22;10958;50.892;3.992;2022-12-24T00:28:27;11.20;99.90
21592;DHT22;10958;50.892;3.992;2022-12-24T00:30:53;11.10;99.90
21592;DHT22;10958;50.892;3.992;2022-12-24T00:33:20;11.10;99.90
21592;DHT22;10958;50.892;3.992;2022-12-24T00:35:49;11.10;99.90
21592;DHT22;10958;50.892;3.992;2022-12-24T00:38:15;11.00;99.90
21592;DHT22;10958;50.892;3.992;2022-12-24T00:40:41;11.10;99.90
21592;DHT22;10958;50.892;3.992;2022-12-24T00:43:08;11.20;99.90
21592;DHT22;10958;50.892;3.992;2022-12-24T00:45:34;11.20;99.90
21592;DHT22;10958;50.892;3.992;2022-12-24T00:48:00;11.20;99.90
21592;DHT22;10958;50.892;3.992;2022-12-24T00:50:26;11.30;99.90
21592;DHT22;10958;50.892;3.992;2022-12-24T00:52:51;11.30;99.90
21592;DHT22;10958;50.892;3.992;2022-12-24T00:55:17;11.20;99.90
21592;DHT22;10958;50.892;3.992;2022-12-24T00:57:43;11.20;99.90
21592;DHT22;10958;50.892;3.992;2022-12-24T01:00:09;11.20;99.90
21592;DHT22;10958;50.892;3.992;2022-12-24T01:02:35;11.20;99.90
21592;DHT22;10958;50.892;3.992;2022-12-24T01:05:01;11.10;99.90
21592;DHT22;10958;50.892;3.992;2022-12-24T01:07:36;11.20;99.90
21592;DHT22;10958;50.892;3.992;2022-12-24T01:10:03;11.20;99.90
21592;DHT22;10958;50.892;3.992;2022-12-24T01:12:29;11.20;99.90
21592;DHT22;10958;50.892;3.992;2022-12-24T01:14:57;11.20;99.90
21592;DHT22;10958;50.892;3.992;2022-12-24T01:17:23;11.20;99.90
21592;DHT22;10958;50.892;3.992;2022-12-24T01:19:49;11.20;99.90
21592;DHT22;10958;50.892;3.992;2022-12-24T01:22:17;11.20;99.90
21592;DHT22;10958;50.892;3.992;2022-12-24T01:24:43;11.20;99.90
21592;DHT22;10958;50.892;3.992;2022-12-24T01:27:12;11.20;99.90
21592;DHT22;10958;50.892;3.992;2022-12-24T01:29:37;11.20;99.90
21592;DHT22;10958;50.892;3.992;2022-12-24T01:32:03;11.20;99.90
21592;DHT22;10958;50.892;3.992;2022-12-24T01:34:29;11.30;99.90
21592;DHT22;10958;50.892;3.992;2022-12-24T01:36:55;11.40;99.90
21592;DHT22;10958;50.892;3.992;2022-12-24T01:39:21;11.30;99.90
21592;DHT22;10958;50.892;3.992;2022-12-24T01:41:47;11.40;99.90
21592;DHT22;10958;50.892;3.992;2022-12-24T01:44:33;11.20;99.90
21592;DHT22;10958;50.892;3.992;2022-12-24T01:49:53;11.30;99.90
21592;DHT22;10958;50.892;3.992;2022-12-24T01:52:22;11.30;99.90
21592;DHT22;10958;50.892;3.992;2022-12-24T01:54:54;11.20;99.90
21592;DHT22;10958;50.892;3.992;2022-12-24T01:57:27;11.20;99.90
21592;DHT22;10958;50.892;3.992;2022-12-24T01:59:59;11.20;99.90
21592;DHT22;10958;50.892;3.992;2022-12-24T02:02:27;11.10;99.90
21592;DHT22;10958;50.892;3.992;2022-12-24T02:05:00;11.10;99.90
21592;DHT22;10958;50.892;3.992;2022-12-24T02:07:28;11.00;99.90
21592;DHT22;10958;50.892;3.992;2022-12-24T02:09:57;11.10;99.90
21592;DHT22;10958;50.892;3.992;2022-12-24T02:12:26;11.20;99.90
21592;DHT22;10958;50.892;3.992;2022-12-24T02:14:53;11.20;99.90
21592;DHT22;10958;50.892;3.992;2022-12-24T02:31:37;11.30;99.90
21592;DHT22;10958;50.892;3.992;2022-12-24T02:36:55;11.20;99.90
21592;DHT22;10958;50.892;3.992;2022-12-24T02:39:42;11.20;99.90
21592;DHT22;10958;50.892;3.992;2022-12-24T02:42:12;11.20;99.90
21592;DHT22;10958;50.892;3.992;2022-12-24T02:44:47;11.10;99.90
21592;DHT22;10958;50.892;3.992;2022-12-24T02:47:16;11.00;99.90
21592;DHT22;10958;50.892;3.992;2022-12-24T02:49:44;11.10;99.90
21592;DHT22;10958;50.892;3.992;2022-12-24T02:52:32;11.00;99.90
21592;DHT22;10958;50.892;3.992;2022-12-24T02:55:03;10.90;99.90
21592;DHT22;10958;50.892;3.992;2022-12-24T03:00:20;10.80;99.90
21592;DHT22;10958;50.892;3.992;2022-12-24T03:03:26;10.70;99.90
21592;DHT22;10958;50.892;3.992;2022-12-24T03:05:58;10.60;99.90
21592;DHT22;10958;50.892;3.992;2022-12-24T03:08:43;10.60;99.90
21592;DHT22;10958;50.892;3.992;2022-12-24T03:11:13;10.60;99.90
21592;DHT22;10958;50.892;3.992;2022-12-24T03:13:41;10.60;99.90
21592;DHT22;10958;50.892;3.992;2022-12-24T03:16:14;10.70;99.90
21592;DHT22;10958;50.892;3.992;2022-12-24T03:18:43;10.70;99.90
21592;DHT22;10958;50.892;3.992;2022-12-24T03:21:37;10.80;99.90
21592;DHT22;10958;50.892;3.992;2022-12-24T03:24:04;10.80;99.90
21592;DHT22;10958;50.892;3.992;2022-12-24T03:26:33;10.90;99.90
21592;DHT22;10958;50.892;3.992;2022-12-24T03:29:05;10.90;99.90
21592;DHT22;10958;50.892;3.992;2022-12-24T03:31:46;10.90;99.90
21592;DHT22;10958;50.892;3.992;2022-12-24T03:34:13;11.00;99.90
21592;DHT22;10958;50.892;3.992;2022-12-24T03:36:42;11.00;99.90
21592;DHT22;10958;50.892;3.992;2022-12-24T03:39:09;10.90;99.90
21592;DHT22;10958;50.892;3.992;2022-12-24T03:41:36;10.90;99.90
21592;DHT22;10958;50.892;3.992;2022-12-24T03:44:05;10.80;99.90
21592;DHT22;10958;50.892;3.992;2022-12-24T03:46:31;10.80;99.90
21592;DHT22;10958;50.892;3.992;2022-12-24T03:48:57;10.70;99.90
21592;DHT22;10958;50.892;3.992;2022-12-24T03:51:23;10.70;99.90
21592;DHT22;10958;50.892;3.992;2022-12-24T03:53:56;10.60;99.90
21592;DHT22;10958;50.892;3.992;2022-12-24T03:56:24;10.60;99.90
21592;DHT22;10958;50.892;3.992;2022-12-24T03:58:53;10.70;99.90
21592;DHT22;10958;50.892;3.992;2022-12-24T04:01:19;10.70;99.90
21592;DHT22;10958;50.892;3.992;2022-12-24T04:03:45;10.80;99.90
21592;DHT22;10958;50.892;3.992;2022-12-24T04:06:13;10.80;99.90
21592;DHT22;10958;50.892;3.992;2022-12-24T04:08:39;10.70;99.90
21592;DHT22;10958;50.892;3.992;2022-12-24T04:11:09;10.80;99.90
21592;DHT22;10958;50.892;3.992;2022-12-24T04:13:35;10.80;99.90
21592;DHT22;10958;50.892;3.992;2022-12-24T04:16:05;10.80;99.90
21592;DHT22;10958;50.892;3.992;2022-12-24T04:18:31;10.70;99.90
21592;DHT22;10958;50.892;3.992;2022-12-24T04:20:57;10.70;99.90
21592;DHT22;10958;50.892;3.992;2022-12-24T04:23:23;10.70;99.90
21592;DHT22;10958;50.892;3.992;2022-12-24T04:25:52;10.60;99.90
21592;DHT22;10958;50.892;3.992;2022-12-24T04:28:17;10.50;99.90
21592;DHT22;10958;50.892;3.992;2022-12-24T04:30:46;10.40;99.90
21592;DHT22;10958;50.892;3.992;2022-12-24T04:33:11;10.40;99.90
21592;DHT22;10958;50.892;3.992;2022-12-24T04:35:40;10.50;99.90
21592;DHT22;10958;50.892;3.992;2022-12-24T04:38:07;10.40;99.90
21592;DHT22;10958;50.892;3.992;2022-12-24T04:40:33;10.30;99.90
21592;DHT22;10958;50.892;3.992;2022-12-24T04:42:59;10.40;99.90
21592;DHT22;10958;50.892;3.992;2022-12-24T04:45:25;10.30;99.90
21592;DHT22;10958;50.892;3.992;2022-12-24T04:47:51;10.30;99.90
21592;DHT22;10958;50.892;3.992;2022-12-24T04:50:16;10.30;99.90
21592;DHT22;10958;50.892;3.992;2022-12-24T04:52:42;10.30;99.90
21592;DHT22;10958;50.892;3.992;2022-12-24T04:55:08;10.20;99.90
21592;DHT22;10958;50.892;3.992;2022-12-24T04:57:34;10.10;99.90
21592;DHT22;10958;50.892;3.992;2022-12-24T05:00:05;10.10;99.90
21592;DHT22;10958;50.892;3.992;2022-12-24T05:02:31;10.00;99.90
21592;DHT22;10958;50.892;3.992;2022-12-24T05:04:57;10.10;99.90
21592;DHT22;10958;50.892;3.992;2022-12-24T05:07:23;10.10;99.90
21592;DHT22;10958;50.892;3.992;2022-12-24T05:09:48;10.10;99.90
21592;DHT22;10958;50.892;3.992;2022-12-24T05:12:14;10.10;99.90
21592;DHT22;10958;50.892;3.992;2022-12-24T05:14:40;10.20;99.90
21592;DHT22;10958;50.892;3.992;2022-12-24T05:17:08;10.20;99.90
21592;DHT22;10958;50.892;3.992;2022-12-24T05:19:34;10.30;99.90
21592;DHT22;10958;50.892;3.992;2022-12-24T05:22:00;10.40;99.90
21592;DHT22;10958;50.892;3.992;2022-12-24T05:24:44;10.40;99.90
21592;DHT22;10958;50.892;3.992;2022-12-24T05:27:31;10.40;99.90
21592;DHT22;10958;50.892;3.992;2022-12-24T05:29:57;10.40;99.90
21592;DHT22;10958;50.892;3.992;2022-12-24T05:32:22;10.50;99.90
21592;DHT22;10958;50.892;3.992;2022-12-24T05:34:48;10.60;99.90
21592;DHT22;10958;50.892;3.992;2022-12-24T05:37:14;10.60;99.90
21592;DHT22;10958;50.892;3.992;2022-12-24T05:39:40;10.50;99.90
21592;DHT22;10958;50.892;3.992;2022-12-24T05:42:08;10.50;99.90
21592;DHT22;10958;50.892;3.992;2022-12-24T05:44:34;10.50;99.90
21592;DHT22;10958;50.892;3.992;2022-12-24T05:47:03;10.50;99.90
21592;DHT22;10958;50.892;3.992;2022-12-24T05:49:31;10.40;99.90
21592;DHT22;10958;50.892;3.992;2022-12-24T05:51:57;10.50;99.90
21592;DHT22;10958;50.892;3.992;2022-12-24T05:54:23;10.50;99.90
21592;DHT22;10958;50.892;3.992;2022-12-24T05:56:49;10.40;99.90
21592;DHT22;10958;50.892;3.992;2022-12-24T05:59:14;10.40;99.90
21592;DHT22;10958;50.892;3.992;2022-12-24T06:01:40;10.40;99.90
21592;DHT22;10958;50.892;3.992;2022-12-24T06:04:09;10.40;99.90
21592;DHT22;10958;50.892;3.992;2022-12-24T06:06:35;10.40;99.90
21592;DHT22;10958;50.892;3.992;2022-12-24T06:09:01;10.30;99.90
21592;DHT22;10958;50.892;3.992;2022-12-24T06:11:29;10.30;99.90
21592;DHT22;10958;50.892;3.992;2022-12-24T06:13:55;10.30;99.90
21592;DHT22;10958;50.892;3.992;2022-12-24T06:16:22;10.40;99.90
21592;DHT22;10958;50.892;3.992;2022-12-24T06:18:49;10.40;99.90
21592;DHT22;10958;50.892;3.992;2022-12-24T06:21:15;10.40;99.90
21592;DHT22;10958;50.892;3.992;2022-12-24T06:23:45;10.30;99.90
21592;DHT22;10958;50.892;3.992;2022-12-24T06:26:13;10.30;99.90
21592;DHT22;10958;50.892;3.992;2022-12-24T06:28:45;10.30;99.90
21592;DHT22;10958;50.892;3.992;2022-12-24T06:31:14;10.30;99.90
21592;DHT22;10958;50.892;3.992;2022-12-24T06:33:40;10.30;99.90
21592;DHT22;10958;50.892;3.992;2022-12-24T06:36:14;10.30;99.90
21592;DHT22;10958;50.892;3.992;2022-12-24T06:38:39;10.40;99.90
21592;DHT22;10958;50.892;3.992;2022-12-24T06:41:07;10.40;99.90
21592;DHT22;10958;50.892;3.992;2022-12-24T06:43:34;10.40;99.90
21592;DHT22;10958;50.892;3.992;2022-12-24T06:46:03;10.40;99.90
21592;DHT22;10958;50.892;3.992;2022-12-24T06:48:29;10.50;99.90
21592;DHT22;10958;50.892;3.992;2022-12-24T06:50:55;10.40;99.90
21592;DHT22;10958;50.892;3.992;2022-12-24T06:53:21;10.40;99.90
21592;DHT22;10958;50.892;3.992;2022-12-24T06:55:47;10.40;99.90
21592;DHT22;10958;50.892;3.992;2022-12-24T06:58:15;10.50;99.90
21592;DHT22;10958;50.892;3.992;2022-12-24T07:00:42;10.40;99.90
21592;DHT22;10958;50.892;3.992;2022-12-24T07:03:08;10.40;99.90
21592;DHT22;10958;50.892;3.992;2022-12-24T07:05:33;10.40;99.90
21592;DHT22;10958;50.892;3.992;2022-12-24T07:08:03;10.40;99.90
21592;DHT22;10958;50.892;3.992;2022-12-24T07:10:29;10.30;99.90
21592;DHT22;10958;50.892;3.992;2022-12-24T07:12:55;10.30;99.90
21592;DHT22;10958;50.892;3.992;2022-12-24T07:15:20;10.40;99.90
21592;DHT22;10958;50.892;3.992;2022-12-24T07:17:46;10.40;99.90
21592;DHT22;10958;50.892;3.992;2022-12-24T07:20:13;10.30;99.90
21592;DHT22;10958;50.892;3.992;2022-12-24T07:22:42;10.40;99.90
21592;DHT22;10958;50.892;3.992;2022-12-24T07:25:09;10.30;99.90
21592;DHT22;10958;50.892;3.992;2022-12-24T07:27:34;10.20;99.90
21592;DHT22;10958;50.892;3.992;2022-12-24T07:30:01;10.20;99.90
21592;DHT22;10958;50.892;3.992;2022-12-24T07:32:27;10.10;99.90
21592;DHT22;10958;50.892;3.992;2022-12-24T07:34:53;10.10;99.90
21592;DHT22;10958;50.892;3.992;2022-12-24T07:37:19;10.20;99.90
21592;DHT22;10958;50.892;3.992;2022-12-24T07:39:48;10.20;99.90
21592;DHT22;10958;50.892;3.992;2022-12-24T07:42:14;10.10;99.90
21592;DHT22;10958;50.892;3.992;2022-12-24T07:44:43;10.10;99.90
21592;DHT22;10958;50.892;3.992;2022-12-24T07:47:11;10.10;99.90
21592;DHT22;10958;50.892;3.992;2022-12-24T07:49:40;10.10;99.90
21592;DHT22;10958;50.892;3.992;2022-12-24T07:52:06;10.10;99.90
21592;DHT22;10958;50.892;3.992;2022-12-24T07:54:32;10.20;99.90
21592;DHT22;10958;50.892;3.992;2022-12-24T07:57:00;10.30;99.90
21592;DHT22;10958;50.892;3.992;2022-12-24T07:59:26;10.20;99.90
21592;DHT22;10958;50.892;3.992;2022-12-24T08:01:52;10.20;99.90
21592;DHT22;10958;50.892;3.992;2022-12-24T08:04:18;10.10;99.90
21592;DHT22;10958;50.892;3.992;2022-12-24T08:06:44;10.20;99.90
21592;DHT22;10958;50.892;3.992;2022-12-24T08:09:10;10.20;99.90
21592;DHT22;10958;50.892;3.992;2022-12-24T08:11:38;10.20;99.90
21592;DHT22;10958;50.892;3.992;2022-12-24T08:14:04;10.10;99.90
21592;DHT22;10958;50.892;3.992;2022-12-24T08:16:29;10.20;99.90
21592;DHT22;10958;50.892;3.992;2022-12-24T08:18:55;10.20;99.90
21592;DHT22;10958;50.892;3.992;2022-12-24T08:21:21;10.20;99.90
21592;DHT22;10958;50.892;3.992;2022-12-24T08:23:49;10.20;99.90
21592;DHT22;10958;50.892;3.992;2022-12-24T08:26:20;10.20;99.90
21592;DHT22;10958;50.892;3.992;2022-12-24T08:28:49;10.20;99.90
21592;DHT22;10958;50.892;3.992;2022-12-24T08:31:15;10.20;99.90
21592;DHT22;10958;50.892;3.992;2022-12-24T08:33:40;10.20;99.90
21592;DHT22;10958;50.892;3.992;2022-12-24T08:36:10;10.20;99.90
21592;DHT22;10958;50.892;3.992;2022-12-24T08:38:39;10.20;99.90
21592;DHT22;10958;50.892;3.992;2022-12-24T08:41:04;10.30;99.90
21592;DHT22;10958;50.892;3.992;2022-12-24T08:43:31;10.40;99.90
21592;DHT22;10958;50.892;3.992;2022-12-24T08:46:01;10.40;99.90
21592;DHT22;10958;50.892;3.992;2022-12-24T08:48:27;10.40;99.90
21592;DHT22;10958;50.892;3.992;2022-12-24T08:50:53;10.40;99.90
21592;DHT22;10958;50.892;3.992;2022-12-24T08:53:21;10.50;99.90
21592;DHT22;10958;50.892;3.992;2022-12-24T08:55:47;10.50;99.90
21592;DHT22;10958;50.892;3.992;2022-12-24T08:58:13;10.50;99.90
21592;DHT22;10958;50.892;3.992;2022-12-24T09:00:39;10.40;99.90
21592;DHT22;10958;50.892;3.992;2022-12-24T09:03:05;10.50;99.90
21592;DHT22;10958;50.892;3.992;2022-12-24T09:05:31;10.50;99.90
21592;DHT22;10958;50.892;3.992;2022-12-24T09:07:57;10.60;99.90
21592;DHT22;10958;50.892;3.992;2022-12-24T09:10:23;10.60;99.90
21592;DHT22;10958;50.892;3.992;2022-12-24T09:12:51;10.70;99.90
21592;DHT22;10958;50.892;3.992;2022-12-24T09:15:17;10.70;99.90
21592;DHT22;10958;50.892;3.992;2022-12-24T09:17:46;10.70;99.90
21592;DHT22;10958;50.892;3.992;2022-12-24T09:20:14;10.60;99.90
21592;DHT22;10958;50.892;3.992;2022-12-24T09:22:40;10.60;99.90
21592;DHT22;10958;50.892;3.992;2022-12-24T09:25:07;10.70;99.90
21592;DHT22;10958;50.892;3.992;2022-12-24T09:27:35;10.70;99.90
21592;DHT22;10958;50.892;3.992;2022-12-24T09:30:01;10.80;99.90
21592;DHT22;10958;50.892;3.992;2022-12-24T09:32:27;10.80;99.90
21592;DHT22;10958;50.892;3.992;2022-12-24T09:34:53;10.90;99.90
21592;DHT22;10958;50.892;3.992;2022-12-24T09:37:18;11.00;99.90
21592;DHT22;10958;50.892;3.992;2022-12-24T09:39:45;11.10;99.90
21592;DHT22;10958;50.892;3.992;2022-12-24T09:45:16;10.90;99.90
21592;DHT22;10958;50.892;3.992;2022-12-24T09:47:48;10.80;99.90
21592;DHT22;10958;50.892;3.992;2022-12-24T09:52:55;10.80;99.90
21592;DHT22;10958;50.892;3.992;2022-12-24T09:55:29;10.60;99.90
21592;DHT22;10958;50.892;3.992;2022-12-24T09:57:59;10.70;99.90
21592;DHT22;10958;50.892;3.992;2022-12-24T10:00:29;11.00;99.90
21592;DHT22;10958;50.892;3.992;2022-12-24T10:02:55;11.10;99.90
21592;DHT22;10958;50.892;3.992;2022-12-24T10:05:46;11.10;99.90
21592;DHT22;10958;50.892;3.992;2022-12-24T10:14:53;11.30;99.90
21592;DHT22;10958;50.892;3.992;2022-12-24T10:19:55;11.40;99.90
21592;DHT22;10958;50.892;3.992;2022-12-24T10:25:29;11.60;99.90
21592;DHT22;10958;50.892;3.992;2022-12-24T10:27:59;11.60;99.90
21592;DHT22;10958;50.892;3.992;2022-12-24T10:30:25;11.70;99.90
21592;DHT22;10958;50.892;3.992;2022-12-24T10:32:52;11.60;99.90
21592;DHT22;10958;50.892;3.992;2022-12-24T10:35:31;11.50;99.90
21592;DHT22;10958;50.892;3.992;2022-12-24T10:37:59;11.50;99.90
21592;DHT22;10958;50.892;3.992;2022-12-24T10:40:39;11.50;99.90
21592;DHT22;10958;50.892;3.992;2022-12-24T10:43:21;11.50;99.90
21592;DHT22;10958;50.892;3.992;2022-12-24T10:45:59;11.40;99.90
21592;DHT22;10958;50.892;3.992;2022-12-24T10:48:42;11.50;99.90
21592;DHT22;10958;50.892;3.992;2022-12-24T10:51:37;11.60;99.90
21592;DHT22;10958;50.892;3.992;2022-12-24T10:56:59;11.80;99.90
21592;DHT22;10958;50.892;3.992;2022-12-24T11:03:36;11.80;99.90
21592;DHT22;10958;50.892;3.992;2022-12-24T11:06:13;11.70;99.90
21592;DHT22;10958;50.892;3.992;2022-12-24T11:08:45;11.70;99.90
21592;DHT22;10958;50.892;3.992;2022-12-24T11:11:14;11.80;99.90
21592;DHT22;10958;50.892;3.992;2022-12-24T11:16:27;11.80;99.90
21592;DHT22;10958;50.892;3.992;2022-12-24T11:18:56;11.70;99.90
21592;DHT22;10958;50.892;3.992;2022-12-24T11:21:30;11.70;99.90
21592;DHT22;10958;50.892;3.992;2022-12-24T11:26:43;11.80;99.90
21592;DHT22;10958;50.892;3.992;2022-12-24T11:29:15;11.70;99.90
21592;DHT22;10958;50.892;3.992;2022-12-24T11:31:44;11.70;99.90
21592;DHT22;10958;50.892;3.992;2022-12-24T11:34:28;11.90;99.90
21592;DHT22;10958;50.892;3.992;2022-12-24T11:37:10;12.00;99.90
21592;DHT22;10958;50.892;3.992;2022-12-24T11:39:40;12.00;99.90
21592;DHT22;10958;50.892;3.992;2022-12-24T11:44:56;12.00;99.90
21592;DHT22;10958;50.892;3.992;2022-12-24T11:47:36;11.90;99.90
21592;DHT22;10958;50.892;3.992;2022-12-24T12:01:29;12.20;99.90
21592;DHT22;10958;50.892;3.992;2022-12-24T12:04:03;12.40;99.90
21592;DHT22;10958;50.892;3.992;2022-12-24T12:06:32;12.40;99.90
21592;DHT22;10958;50.892;3.992;2022-12-24T12:09:06;12.30;99.90
21592;DHT22;10958;50.892;3.992;2022-12-24T12:11:38;12.30;99.90
21592;DHT22;10958;50.892;3.992;2022-12-24T12:14:12;12.30;99.90
21592;DHT22;10958;50.892;3.992;2022-12-24T12:16:56;12.30;99.90
21592;DHT22;10958;50.892;3.992;2022-12-24T12:19:37;12.10;99.90
21592;DHT22;10958;50.892;3.992;2022-12-24T12:22:15;11.90;99.90
21592;DHT22;10958;50.892;3.992;2022-12-24T12:24:51;12.00;99.90
21592;DHT22;10958;50.892;3.992;2022-12-24T12:33:14;12.20;99.90
21592;DHT22;10958;50.892;3.992;2022-12-24T12:35:43;12.20;99.90
21592;DHT22;10958;50.892;3.992;2022-12-24T12:41:10;12.40;99.90
21592;DHT22;10958;50.892;3.992;2022-12-24T12:52:40;12.60;99.90
21592;DHT22;10958;50.892;3.992;2022-12-24T12:58:01;12.80;99.90
21592;DHT22;10958;50.892;3.992;2022-12-24T13:00:36;12.80;99.90
21592;DHT22;10958;50.892;3.992;2022-12-24T13:03:37;12.80;99.90
21592;DHT22;10958;50.892;3.992;2022-12-24T13:19:38;13.00;99.90
21592;DHT22;10958;50.892;3.992;2022-12-24T13:22:20;13.10;99.90
21592;DHT22;10958;50.892;3.992;2022-12-24T13:24:49;13.00;99.90
21592;DHT22;10958;50.892;3.992;2022-12-24T13:27:31;12.90;99.90
21592;DHT22;10958;50.892;3.992;2022-12-24T13:30:30;12.60;99.90
21592;DHT22;10958;50.892;3.992;2022-12-24T13:32:56;12.50;99.90
21592;DHT22;10958;50.892;3.992;2022-12-24T13:37:49;12.60;99.90
21592;DHT22;10958;50.892;3.992;2022-12-24T13:40:22;12.50;99.90
21592;DHT22;10958;50.892;3.992;2022-12-24T13:48:37;12.60;99.90
21592;DHT22;10958;50.892;3.992;2022-12-24T13:50:54;12.70;99.90
21592;DHT22;10958;50.892;3.992;2022-12-24T13:55:56;12.80;99.90
21592;DHT22;10958;50.892;3.992;2022-12-24T13:58:23;12.70;99.90
21592;DHT22;10958;50.892;3.992;2022-12-24T14:03:36;12.70;99.90
21592;DHT22;10958;50.892;3.992;2022-12-24T14:06:09;12.80;99.90
21592;DHT22;10958;50.892;3.992;2022-12-24T14:08:43;12.80;99.90
21592;DHT22;10958;50.892;3.992;2022-12-24T14:11:19;12.70;99.90
21592;DHT22;10958;50.892;3.992;2022-12-24T14:16:23;12.60;99.90
21592;DHT22;10958;50.892;3.992;2022-12-24T14:19:02;12.50;99.90
21592;DHT22;10958;50.892;3.992;2022-12-24T14:21:34;12.40;99.90
21592;DHT22;10958;50.892;3.992;2022-12-24T14:24:11;12.30;99.90
21592;DHT22;10958;50.892;3.992;2022-12-24T14:26:53;12.30;99.90
21592;DHT22;10958;50.892;3.992;2022-12-24T14:29:32;12.50;99.90
21592;DHT22;10958;50.892;3.992;2022-12-24T14:32:00;12.50;99.90
21592;DHT22;10958;50.892;3.992;2022-12-24T14:34:32;12.50;99.90
21592;DHT22;10958;50.892;3.992;2022-12-24T14:37:02;12.40;99.90
21592;DHT22;10958;50.892;3.992;2022-12-24T14:39:32;12.30;99.90
21592;DHT22;10958;50.892;3.992;2022-12-24T14:55:42;12.50;99.90
21592;DHT22;10958;50.892;3.992;2022-12-24T14:58:29;12.40;99.90
21592;DHT22;10958;50.892;3.992;2022-12-24T15:01:00;12.40;99.90
21592;DHT22;10958;50.892;3.992;2022-12-24T15:03:29;12.40;99.90
21592;DHT22;10958;50.892;3.992;2022-12-24T15:06:02;12.40;99.90
21592;DHT22;10958;50.892;3.992;2022-12-24T15:08:35;12.30;99.90
21592;DHT22;10958;50.892;3.992;2022-12-24T15:11:06;12.20;99.90
21592;DHT22;10958;50.892;3.992;2022-12-24T15:13:34;12.30;99.90
21592;DHT22;10958;50.892;3.992;2022-12-24T15:16:05;12.30;99.90
21592;DHT22;10958;50.892;3.992;2022-12-24T15:18:34;12.30;99.90
21592;DHT22;10958;50.892;3.992;2022-12-24T15:21:06;12.10;99.90
21592;DHT22;10958;50.892;3.992;2022-12-24T15:23:34;12.20;99.90
21592;DHT22;10958;50.892;3.992;2022-12-24T15:26:19;12.20;99.90
21592;DHT22;10958;50.892;3.992;2022-12-24T15:28:48;12.20;99.90
21592;DHT22;10958;50.892;3.992;2022-12-24T15:31:23;12.20;99.90
21592;DHT22;10958;50.892;3.992;2022-12-24T15:33:52;11.90;99.90
21592;DHT22;10958;50.892;3.992;2022-12-24T15:36:36;12.00;99.90
21592;DHT22;10958;50.892;3.992;2022-12-24T15:39:12;12.00;99.90
21592;DHT22;10958;50.892;3.992;2022-12-24T15:41:43;12.00;99.90
21592;DHT22;10958;50.892;3.992;2022-12-24T15:44:32;11.80;99.90
21592;DHT22;10958;50.892;3.992;2022-12-24T15:47:00;11.80;99.90
21592;DHT22;10958;50.892;3.992;2022-12-24T15:49:29;11.90;99.90
21592;DHT22;10958;50.892;3.992;2022-12-24T15:52:09;12.00;99.90
21592;DHT22;10958;50.892;3.992;2022-12-24T15:54:35;12.00;99.90
21592;DHT22;10958;50.892;3.992;2022-12-24T15:57:24;11.90;99.90
21592;DHT22;10958;50.892;3.992;2022-12-24T15:59:51;12.00;99.90
21592;DHT22;10958;50.892;3.992;2022-12-24T16:02:39;12.00;99.90
21592;DHT22;10958;50.892;3.992;2022-12-24T16:08:22;12.10;99.90
21592;DHT22;10958;50.892;3.992;2022-12-24T16:10:52;12.00;99.90
21592;DHT22;10958;50.892;3.992;2022-12-24T16:13:24;12.00;99.90
21592;DHT22;10958;50.892;3.992;2022-12-24T16:16:14;11.90;99.90
21592;DHT22;10958;50.892;3.992;2022-12-24T16:18:59;11.80;99.90
21592;DHT22;10958;50.892;3.992;2022-12-24T16:21:31;11.70;99.90
21592;DHT22;10958;50.892;3.992;2022-12-24T16:24:09;11.70;99.90
21592;DHT22;10958;50.892;3.992;2022-12-24T16:26:38;11.70;99.90
21592;DHT22;10958;50.892;3.992;2022-12-24T16:29:04;11.60;99.90
21592;DHT22;10958;50.892;3.992;2022-12-24T16:31:36;11.70;99.90
21592;DHT22;10958;50.892;3.992;2022-12-24T16:34:05;11.50;99.90
21592;DHT22;10958;50.892;3.992;2022-12-24T16:36:31;11.50;99.90
21592;DHT22;10958;50.892;3.992;2022-12-24T16:38:57;11.50;99.90
21592;DHT22;10958;50.892;3.992;2022-12-24T16:41:42;11.40;99.90
21592;DHT22;10958;50.892;3.992;2022-12-24T16:44:26;11.40;99.90
21592;DHT22;10958;50.892;3.992;2022-12-24T16:46:53;11.40;99.90
21592;DHT22;10958;50.892;3.992;2022-12-24T16:49:20;11.50;99.90
21592;DHT22;10958;50.892;3.992;2022-12-24T16:51:46;11.60;99.90
21592;DHT22;10958;50.892;3.992;2022-12-24T16:54:13;11.70;99.90
21592;DHT22;10958;50.892;3.992;2022-12-24T16:56:40;11.70;99.90
21592;DHT22;10958;50.892;3.992;2022-12-24T16:59:08;11.70;99.90
21592;DHT22;10958;50.892;3.992;2022-12-24T17:01:40;11.80;99.90
21592;DHT22;10958;50.892;3.992;2022-12-24T17:04:06;11.90;99.90
21592;DHT22;10958;50.892;3.992;2022-12-24T17:06:32;11.90;99.90
21592;DHT22;10958;50.892;3.992;2022-12-24T17:08:58;11.80;99.90
21592;DHT22;10958;50.892;3.992;2022-12-24T17:11:24;11.70;99.90
21592;DHT22;10958;50.892;3.992;2022-12-24T17:17:27;11.30;99.90
21592;DHT22;10958;50.892;3.992;2022-12-24T17:19:54;11.20;99.90
21592;DHT22;10958;50.892;3.992;2022-12-24T17:22:24;11.20;99.90
21592;DHT22;10958;50.892;3.992;2022-12-24T17:24:53;11.20;99.90
21592;DHT22;10958;50.892;3.992;2022-12-24T17:27:22;11.00;99.90
21592;DHT22;10958;50.892;3.992;2022-12-24T17:29:50;11.00;99.90
21592;DHT22;10958;50.892;3.992;2022-12-24T17:32:19;10.90;99.90
21592;DHT22;10958;50.892;3.992;2022-12-24T17:34:59;10.90;99.90
21592;DHT22;10958;50.892;3.992;2022-12-24T17:37:30;10.80;99.90
21592;DHT22;10958;50.892;3.992;2022-12-24T17:40:01;11.00;99.90
21592;DHT22;10958;50.892;3.992;2022-12-24T17:42:30;11.00;99.90
21592;DHT22;10958;50.892;3.992;2022-12-24T17:45:06;10.90;99.90
21592;DHT22;10958;50.892;3.992;2022-12-24T17:47:33;10.90;99.90
21592;DHT22;10958;50.892;3.992;2022-12-24T17:50:07;11.00;99.90
21592;DHT22;10958;50.892;3.992;2022-12-24T17:52:40;11.00;99.90
21592;DHT22;10958;50.892;3.992;2022-12-24T17:55:17;11.00;99.90
21592;DHT22;10958;50.892;3.992;2022-12-24T17:57:45;11.00;99.90
21592;DHT22;10958;50.892;3.992;2022-12-24T18:00:11;11.00;99.90
21592;DHT22;10958;50.892;3.992;2022-12-24T18:02:38;10.90;99.90
21592;DHT22;10958;50.892;3.992;2022-12-24T18:05:05;10.90;99.90